Forside
METAR-TAF:

METAR-TAF

Lufthavne :

Kermanshah, Iran

Breddekreds: 34-16N, længdekreds: 047-07E, højde: 1320 m

Aktuelle vejr

Denne rapport blev lavet for 36 minutter siden, kl. 21:00 UTC
Vind stille
Temperatur -2°C
Fugtighed 80%
Tryk 1023 hPa
Sigt 10 km eller mere
ingen skyer under 1500m og ingen cumulonimbus

METAR: OICC 262100Z 00000KT CAVOK M02/M05 Q1022 A3021

Tid: 01:06 (21:36 UTC)


TAF: fraværende

Vejrobservationer og prognoser fra mere end 4000 lufthavne (METAR og TAF).

De gule og røde prikker repræsenterer de meteorologiske stationer.

Flyt musen over at se navnet på stationen.

Så klik over at se vejr observationer og prognoser.

At skifte det kort: Klik på de grønne knapper med et sort kors for at zoome ind; på den grønne knap med en bindestreg for at zoome ud; eller på de grønne pile for tilstødende kort.


METAR-TAF: